createdAt,value
2024-01-20T00:02:31.409Z,3.10
2024-01-20T00:06:36.891Z,3.10
2024-01-20T00:10:42.399Z,3.10
2024-01-20T00:14:47.863Z,3.10
2024-01-20T00:18:53.907Z,3.10
2024-01-20T00:22:59.556Z,3.00
2024-01-20T00:27:05.238Z,3.00
2024-01-20T00:31:10.749Z,3.00
2024-01-20T00:35:16.908Z,3.00
2024-01-20T00:39:22.578Z,3.00
2024-01-20T00:43:27.895Z,3.10
2024-01-20T00:47:35.843Z,3.00
2024-01-20T00:51:43.529Z,3.10
2024-01-20T00:55:48.860Z,3.10
2024-01-20T00:59:54.475Z,3.10
2024-01-20T01:03:59.908Z,3.10
2024-01-20T01:08:05.491Z,3.10
2024-01-20T01:12:10.990Z,3.20
2024-01-20T01:16:16.397Z,3.10
2024-01-20T01:20:22.023Z,3.20
2024-01-20T01:24:27.418Z,3.20
2024-01-20T01:28:32.779Z,3.20
2024-01-20T01:32:38.334Z,3.20
2024-01-20T01:36:44.534Z,3.20
2024-01-20T01:40:50.432Z,3.20
2024-01-20T01:44:56.042Z,3.20
2024-01-20T01:49:01.956Z,3.20
2024-01-20T01:53:07.425Z,3.30
2024-01-20T01:57:13.477Z,3.30
2024-01-20T02:01:18.960Z,3.30
2024-01-20T02:05:24.430Z,3.20
2024-01-20T02:09:30.207Z,3.30
2024-01-20T02:13:36.078Z,3.30
2024-01-20T02:17:54.909Z,3.30
2024-01-20T02:22:00.360Z,3.20
2024-01-20T02:26:06.503Z,3.20
2024-01-20T02:30:12.157Z,3.20
2024-01-20T02:34:17.696Z,3.30
2024-01-20T02:38:23.336Z,3.20
2024-01-20T02:42:28.791Z,3.20
2024-01-20T02:46:34.125Z,3.20
2024-01-20T02:50:39.513Z,3.30
2024-01-20T02:54:44.934Z,3.30
2024-01-20T02:58:50.255Z,3.30
2024-01-20T03:02:56.757Z,3.30
2024-01-20T03:07:02.309Z,3.30
2024-01-20T03:11:07.769Z,3.20
2024-01-20T03:15:13.687Z,3.30
2024-01-20T03:19:19.201Z,3.30
2024-01-20T03:23:24.675Z,3.30
2024-01-20T03:27:30.072Z,3.30
2024-01-20T03:31:35.714Z,3.30
2024-01-20T03:35:41.089Z,3.30
2024-01-20T03:39:46.515Z,3.30
2024-01-20T03:43:51.939Z,3.30
2024-01-20T03:47:57.301Z,3.30
2024-01-20T03:52:02.722Z,3.30
2024-01-20T03:56:08.209Z,3.20
2024-01-20T04:00:14.025Z,3.20
2024-01-20T04:04:19.865Z,3.20
2024-01-20T04:08:25.259Z,3.20
2024-01-20T04:12:30.605Z,3.20
2024-01-20T04:16:35.972Z,3.20
2024-01-20T04:20:41.386Z,3.20
2024-01-20T04:24:46.781Z,3.20
2024-01-20T04:28:52.443Z,3.20
2024-01-20T04:32:58.039Z,3.20
2024-01-20T04:37:03.463Z,3.20
2024-01-20T04:41:08.820Z,3.20
2024-01-20T04:45:14.987Z,3.20
2024-01-20T04:49:20.792Z,3.20
2024-01-20T04:53:26.292Z,3.10
2024-01-20T04:57:31.792Z,3.20
2024-01-20T05:01:38.919Z,3.20
2024-01-20T05:05:46.002Z,3.20
2024-01-20T05:09:51.617Z,3.10
2024-01-20T05:13:56.982Z,3.10
2024-01-20T05:18:02.509Z,3.10
2024-01-20T05:22:07.911Z,3.10
2024-01-20T05:26:13.340Z,3.10
2024-01-20T05:30:18.849Z,3.10
2024-01-20T05:34:24.371Z,3.00
2024-01-20T05:38:29.868Z,3.00
2024-01-20T05:42:35.276Z,3.00
2024-01-20T05:46:41.776Z,3.00
2024-01-20T05:50:48.419Z,3.00
2024-01-20T05:54:54.836Z,2.90
2024-01-20T05:59:00.126Z,2.90
2024-01-20T06:03:05.493Z,2.90
2024-01-20T06:07:10.966Z,2.90
2024-01-20T06:11:16.334Z,2.90
2024-01-20T06:15:21.790Z,2.90
2024-01-20T06:19:27.244Z,2.90
2024-01-20T06:23:32.603Z,2.80
2024-01-20T06:27:38.693Z,2.80
2024-01-20T06:31:44.210Z,2.80
2024-01-20T06:35:52.202Z,2.80
2024-01-20T06:39:57.616Z,2.80
2024-01-20T06:44:02.912Z,2.80
2024-01-20T06:48:09.119Z,2.80
2024-01-20T06:52:14.846Z,2.80
2024-01-20T06:56:20.259Z,2.80
2024-01-20T07:00:25.654Z,2.80
2024-01-20T07:04:32.326Z,2.80
2024-01-20T07:08:37.759Z,2.80
2024-01-20T07:12:43.177Z,2.80
2024-01-20T07:16:48.583Z,2.80
2024-01-20T07:20:53.998Z,2.80
2024-01-20T07:24:59.430Z,2.80
2024-01-20T07:29:04.815Z,2.80
2024-01-20T07:33:10.284Z,2.90
2024-01-20T07:37:17.944Z,2.90
2024-01-20T07:41:24.626Z,2.90
2024-01-20T07:45:31.778Z,2.90
2024-01-20T07:49:37.352Z,2.80
2024-01-20T07:53:42.832Z,2.90
2024-01-20T07:57:53.905Z,2.90
2024-01-20T08:01:59.411Z,2.90
2024-01-20T08:06:05.172Z,2.90
2024-01-20T08:10:11.120Z,3.00
2024-01-20T08:14:16.507Z,3.00
2024-01-20T08:18:21.993Z,3.00
2024-01-20T08:22:30.329Z,2.90
2024-01-20T08:26:35.799Z,2.90
2024-01-20T08:30:41.211Z,3.00
2024-01-20T08:34:47.389Z,3.00
2024-01-20T08:38:52.716Z,3.00
2024-01-20T08:42:58.344Z,3.10
2024-01-20T08:47:06.194Z,3.10
2024-01-20T08:51:11.702Z,3.10
2024-01-20T08:55:17.111Z,3.10
2024-01-20T08:59:23.283Z,3.10
2024-01-20T09:03:28.788Z,3.20
2024-01-20T09:07:34.245Z,3.20
2024-01-20T09:11:39.576Z,3.20
2024-01-20T09:15:47.773Z,3.20
2024-01-20T09:19:53.461Z,3.30
2024-01-20T09:23:58.957Z,3.30
2024-01-20T09:28:05.305Z,3.30
2024-01-20T09:32:10.746Z,3.30
2024-01-20T09:36:16.224Z,3.30
2024-01-20T09:40:21.670Z,3.30
2024-01-20T09:44:28.062Z,3.30
2024-01-20T09:48:33.585Z,3.30
2024-01-20T09:52:52.293Z,3.30
2024-01-20T09:56:57.648Z,3.30
2024-01-20T10:01:04.170Z,3.30
2024-01-20T10:05:12.055Z,3.30
2024-01-20T10:09:17.482Z,3.30
2024-01-20T10:13:22.921Z,3.30
2024-01-20T10:17:28.510Z,3.40
2024-01-20T10:21:42.344Z,3.40
2024-01-20T10:25:47.797Z,3.50
2024-01-20T10:29:53.420Z,3.50
2024-01-20T10:33:59.111Z,3.50
2024-01-20T10:38:14.500Z,3.50
2024-01-20T10:42:21.522Z,3.50
2024-01-20T10:46:32.514Z,3.50
2024-01-20T10:50:43.662Z,3.50
2024-01-20T10:54:50.007Z,3.50
2024-01-20T10:59:12.352Z,3.50
2024-01-20T11:03:19.069Z,3.50
2024-01-20T11:07:27.756Z,3.50
2024-01-20T11:11:36.852Z,3.50
2024-01-20T11:15:43.031Z,3.60
2024-01-20T11:19:49.131Z,3.60
2024-01-20T11:24:01.391Z,3.70
2024-01-20T11:28:06.981Z,3.70
2024-01-20T11:32:12.715Z,3.80
2024-01-20T11:36:18.969Z,3.90
2024-01-20T11:40:24.931Z,4.00
2024-01-20T11:44:32.530Z,4.00
2024-01-20T11:48:38.404Z,4.10
2024-01-20T11:52:44.097Z,4.10
2024-01-20T11:56:57.521Z,4.00
2024-01-20T12:01:04.299Z,4.10
2024-01-20T12:05:15.972Z,4.10
2024-01-20T12:09:24.190Z,4.20
2024-01-20T12:13:34.028Z,4.10
2024-01-20T12:17:39.502Z,4.10
2024-01-20T12:21:46.333Z,4.10
2024-01-20T12:25:54.291Z,4.10
2024-01-20T12:29:59.870Z,4.10
2024-01-20T12:34:05.417Z,4.10
2024-01-20T12:38:10.962Z,4.10
2024-01-20T12:42:17.193Z,4.10
2024-01-20T12:46:22.517Z,4.10
2024-01-20T12:50:27.845Z,4.10
2024-01-20T12:54:33.250Z,4.10
2024-01-20T12:58:38.766Z,4.10
2024-01-20T13:02:44.176Z,4.10
2024-01-20T13:06:50.192Z,4.10
2024-01-20T13:10:56.213Z,4.10
2024-01-20T13:15:01.885Z,4.00
2024-01-20T13:19:10.264Z,4.10
2024-01-20T13:23:15.849Z,4.10
2024-01-20T13:27:21.242Z,4.10
2024-01-20T13:31:27.209Z,4.10
2024-01-20T13:35:32.555Z,4.10
2024-01-20T13:39:38.214Z,4.10
2024-01-20T13:43:44.878Z,4.10
2024-01-20T13:47:50.656Z,4.10
2024-01-20T13:51:56.058Z,4.10
2024-01-20T13:56:01.433Z,4.10
2024-01-20T14:00:07.668Z,4.20
2024-01-20T14:04:14.442Z,4.20
2024-01-20T14:08:19.998Z,4.20
2024-01-20T14:12:25.531Z,4.20
2024-01-20T14:16:31.665Z,4.20
2024-01-20T14:20:37.166Z,4.30
2024-01-20T14:24:42.847Z,4.30
2024-01-20T14:28:49.917Z,4.30
2024-01-20T14:32:55.482Z,4.30
2024-01-20T14:37:02.347Z,4.30
2024-01-20T14:41:09.312Z,4.30
2024-01-20T14:45:15.254Z,4.20
2024-01-20T14:49:20.806Z,4.20
2024-01-20T14:53:26.200Z,4.20
2024-01-20T14:57:31.669Z,4.20
2024-01-20T15:01:38.351Z,4.20
2024-01-20T15:05:43.803Z,4.10
2024-01-20T15:09:49.238Z,4.10
2024-01-20T15:13:55.184Z,4.00
2024-01-20T15:18:00.904Z,4.00
2024-01-20T15:22:06.984Z,3.90
2024-01-20T15:26:16.279Z,3.90
2024-01-20T15:30:21.709Z,3.90
2024-01-20T15:34:27.264Z,3.90
2024-01-20T15:38:33.065Z,3.80
2024-01-20T15:42:38.476Z,3.80
2024-01-20T15:46:43.947Z,3.70
2024-01-20T15:50:49.322Z,3.70
2024-01-20T15:54:55.018Z,3.60
2024-01-20T15:59:00.398Z,3.60
2024-01-20T16:03:06.030Z,3.60
2024-01-20T16:07:16.252Z,3.50
2024-01-20T16:11:21.908Z,3.50
2024-01-20T16:15:27.316Z,3.50
2024-01-20T16:19:32.775Z,3.50
2024-01-20T16:23:38.203Z,3.40
2024-01-20T16:27:43.714Z,3.40
2024-01-20T16:31:49.131Z,3.30
2024-01-20T16:35:54.601Z,3.30
2024-01-20T16:40:01.969Z,3.30
2024-01-20T16:44:08.266Z,3.30
2024-01-20T16:48:13.756Z,3.30
2024-01-20T16:52:19.309Z,3.20
2024-01-20T16:56:24.729Z,3.20
2024-01-20T17:00:30.399Z,3.10
2024-01-20T17:04:35.857Z,3.10
2024-01-20T17:08:41.548Z,3.00
2024-01-20T17:12:47.000Z,3.00
2024-01-20T17:16:52.514Z,3.00
2024-01-20T17:20:57.915Z,3.00
2024-01-20T17:25:04.036Z,3.00
2024-01-20T17:29:10.764Z,2.90
2024-01-20T17:33:16.296Z,2.90
2024-01-20T17:37:21.732Z,2.90
2024-01-20T17:41:27.100Z,2.90
2024-01-20T17:45:32.865Z,2.90
2024-01-20T17:49:38.870Z,2.90
2024-01-20T17:53:44.427Z,2.90
2024-01-20T17:57:51.315Z,2.90
2024-01-20T18:01:56.965Z,2.80
2024-01-20T18:06:02.527Z,2.80
2024-01-20T18:10:08.253Z,2.90
2024-01-20T18:14:13.644Z,2.90
2024-01-20T18:18:19.201Z,2.80
2024-01-20T18:22:24.711Z,2.80
2024-01-20T18:26:30.105Z,2.80
2024-01-20T18:30:37.658Z,2.80
2024-01-20T18:34:43.786Z,2.70
2024-01-20T18:38:52.260Z,2.60
2024-01-20T18:42:58.948Z,2.60
2024-01-20T18:47:07.159Z,2.50
2024-01-20T18:51:13.065Z,2.50
2024-01-20T18:55:18.563Z,2.40
2024-01-20T18:59:24.207Z,2.40
2024-01-20T19:03:29.751Z,2.40
2024-01-20T19:07:36.023Z,2.30
2024-01-20T19:11:41.588Z,2.30
2024-01-20T19:15:48.708Z,2.30
2024-01-20T19:19:54.419Z,2.20
2024-01-20T19:24:00.243Z,2.10
2024-01-20T19:28:06.068Z,2.10
2024-01-20T19:32:11.523Z,2.00
2024-01-20T19:36:17.156Z,2.00
2024-01-20T19:40:22.679Z,1.90
2024-01-20T19:44:28.342Z,1.90
2024-01-20T19:48:34.686Z,1.80
2024-01-20T19:52:40.436Z,1.80
2024-01-20T19:56:46.825Z,1.70
2024-01-20T20:00:53.071Z,1.60
2024-01-20T20:04:58.578Z,1.60
2024-01-20T20:09:05.725Z,1.50
2024-01-20T20:13:11.106Z,1.50
2024-01-20T20:17:16.656Z,1.40
2024-01-20T20:21:22.212Z,1.40
2024-01-20T20:25:27.772Z,1.30
2024-01-20T20:29:35.251Z,1.30
2024-01-20T20:33:42.309Z,1.20
2024-01-20T20:37:48.000Z,1.20
2024-01-20T20:41:54.318Z,1.20
2024-01-20T20:45:59.865Z,1.10
2024-01-20T20:50:06.886Z,1.10
2024-01-20T20:54:12.727Z,1.10
2024-01-20T20:58:18.293Z,1.00
2024-01-20T21:02:24.320Z,1.00
2024-01-20T21:06:30.023Z,1.00
2024-01-20T21:10:36.301Z,1.00
2024-01-20T21:14:41.756Z,1.00
2024-01-20T21:18:47.518Z,1.00
2024-01-20T21:22:53.117Z,1.00
2024-01-20T21:26:58.706Z,1.00
2024-01-20T21:31:04.446Z,1.00
2024-01-20T21:35:10.502Z,1.00
2024-01-20T21:39:16.085Z,0.90
2024-01-20T21:43:22.175Z,0.90
2024-01-20T21:47:28.174Z,0.90
2024-01-20T21:51:33.778Z,0.90
2024-01-20T21:55:39.389Z,0.90
2024-01-20T21:59:44.972Z,0.90
2024-01-20T22:03:50.660Z,0.90
2024-01-20T22:08:00.501Z,0.80
2024-01-20T22:12:06.416Z,0.80
2024-01-20T22:16:12.350Z,0.80
2024-01-20T22:20:18.288Z,0.80
2024-01-20T22:24:23.922Z,0.80
2024-01-20T22:28:29.567Z,0.80
2024-01-20T22:32:35.337Z,0.80
2024-01-20T22:36:40.890Z,0.80
2024-01-20T22:40:46.460Z,0.80
2024-01-20T22:44:52.093Z,0.80
2024-01-20T22:48:57.769Z,0.80
2024-01-20T22:53:03.472Z,0.90
2024-01-20T22:57:09.050Z,0.80
2024-01-20T23:01:17.263Z,0.80
2024-01-20T23:05:24.081Z,0.80
2024-01-20T23:09:30.026Z,0.80
2024-01-20T23:13:37.239Z,0.80
2024-01-20T23:17:42.791Z,0.90
2024-01-20T23:21:48.372Z,0.90
2024-01-20T23:25:54.120Z,0.90
2024-01-20T23:29:59.637Z,0.90
2024-01-20T23:34:05.848Z,0.90
2024-01-20T23:38:11.839Z,0.90
2024-01-20T23:42:17.456Z,0.90
2024-01-20T23:46:23.039Z,0.90
2024-01-20T23:50:28.585Z,0.90
2024-01-20T23:54:34.413Z,0.90
2024-01-20T23:58:40.172Z,0.90
